Time;durP1;ratioP1;P1;durP2;ratioP2;P2;SDS_P1;SDS_P2;PMS_P1;PMS_P2;Temp;Humidity;BMP_temperature;BMP_pressure;BME280_temperature;BME280_humidity;BME280_pressure;Samples;Min_cycle;Max_cycle;Signal;HPM_P1;HPM_P2
2023/12/04 00:00:57;;;;;;;8.90;5.10;;;;;;;-2.17;100.00;100504.75;88422;278;136887;-73
2023/12/04 00:02:59;;;;;;;8.00;6.50;;;;;;;-2.14;100.00;100503.35;88511;274;22614;-71
2023/12/04 00:05:01;;;;;;;12.30;7.30;;;;;;;-2.14;100.00;100513.23;88420;281;137703;-71
2023/12/04 00:07:03;;;;;;;9.20;6.50;;;;;;;-2.13;100.00;100517.17;88636;281;24057;-74
2023/12/04 00:09:06;;;;;;;9.70;6.60;;;;;;;-2.10;100.00;100520.13;88419;282;137360;-72
2023/12/04 00:11:09;;;;;;;9.20;6.40;;;;;;;-2.09;100.00;100521.11;88534;282;24030;-72
2023/12/04 00:13:11;;;;;;;9.40;7.00;;;;;;;-2.11;100.00;100526.29;88363;279;137169;-72
2023/12/04 00:15:13;;;;;;;7.50;6.60;;;;;;;-2.11;100.00;100532.90;88343;283;23011;-74
2023/12/04 00:17:15;;;;;;;8.10;6.30;;;;;;;-2.11;100.00;100537.27;88718;280;137023;-71
2023/12/04 00:19:17;;;;;;;10.30;5.80;;;;;;;-2.10;100.00;100532.86;88567;273;22599;-74
2023/12/04 00:21:19;;;;;;;6.50;5.80;;;;;;;-2.11;100.00;100539.52;88514;280;150863;-72
2023/12/04 00:23:21;;;;;;;8.90;7.10;;;;;;;-2.11;100.00;100541.99;88332;276;22924;-70
2023/12/04 00:25:23;;;;;;;9.10;6.90;;;;;;;-2.11;100.00;100543.89;88294;283;137680;-71
2023/12/04 00:27:27;;;;;;;8.30;6.30;;;;;;;-2.11;100.00;100543.17;88713;279;24343;-71
2023/12/04 00:29:30;;;;;;;9.00;6.60;;;;;;;-2.15;100.00;100551.06;88415;274;137888;-71
2023/12/04 00:31:32;;;;;;;9.00;6.90;;;;;;;-2.19;100.00;100549.61;88633;282;22534;-70
2023/12/04 00:33:35;;;;;;;8.70;7.80;;;;;;;-2.20;100.00;100546.54;88509;282;137946;-70
2023/12/04 00:35:37;;;;;;;11.60;6.90;;;;;;;-2.21;100.00;100547.13;88550;274;24055;-70
2023/12/04 00:37:39;;;;;;;8.90;5.60;;;;;;;-2.23;100.00;100545.89;88341;282;137342;-70
2023/12/04 00:39:41;;;;;;;7.10;5.70;;;;;;;-2.27;100.00;100546.28;88486;282;22553;-70
2023/12/04 00:41:43;;;;;;;8.10;6.00;;;;;;;-2.30;100.00;100548.08;88505;274;137014;-72
2023/12/04 00:43:44;;;;;;;9.00;6.70;;;;;;;-2.35;100.00;100552.75;88394;275;22533;-72
2023/12/04 00:45:46;;;;;;;8.70;6.60;;;;;;;-2.37;100.00;100555.14;88305;279;137772;-70
2023/12/04 00:47:49;;;;;;;9.40;7.00;;;;;;;-2.37;100.00;100556.52;88507;282;25236;-72
2023/12/04 00:49:51;;;;;;;10.40;6.80;;;;;;;-2.36;100.00;100557.65;88476;278;137171;-70
2023/12/04 00:51:53;;;;;;;8.60;6.20;;;;;;;-2.35;100.00;100556.91;88541;279;24054;-72
2023/12/04 00:53:55;;;;;;;13.00;7.20;;;;;;;-2.33;100.00;100560.81;88395;275;136940;-74
2023/12/04 00:55:57;;;;;;;8.90;6.70;;;;;;;-2.29;100.00;100559.48;88602;278;23723;-70
2023/12/04 00:57:59;;;;;;;10.40;7.00;;;;;;;-2.24;100.00;100556.00;88415;281;136856;-73
2023/12/04 01:00:04;;;;;;;7.50;6.10;;;;;;;-2.23;100.00;100562.54;88516;276;24054;-70
2023/12/04 01:02:08;;;;;;;11.40;7.40;;;;;;;-2.25;100.00;100563.05;88599;282;22780;-67
2023/12/04 01:04:09;;;;;;;8.40;6.30;;;;;;;-2.30;100.00;100562.16;88671;278;138801;-70
2023/12/04 01:06:23;;;;;;;10.20;7.40;;;;;;;-2.37;100.00;100568.19;89301;280;22472;-70
2023/12/04 01:08:28;;;;;;;8.10;6.20;;;;;;;-2.50;100.00;100566.26;89243;280;137468;-69
2023/12/04 01:10:30;;;;;;;8.50;7.10;;;;;;;-2.57;100.00;100573.47;89123;282;22541;-68
2023/12/04 01:12:32;;;;;;;9.60;7.20;;;;;;;-2.54;100.00;100573.98;88879;281;136832;-71
2023/12/04 01:14:38;;;;;;;8.70;6.60;;;;;;;-2.50;100.00;100573.55;88692;277;23978;-71
2023/12/04 01:16:40;;;;;;;9.40;6.50;;;;;;;-2.48;100.00;100575.66;88539;281;137075;-70
2023/12/04 01:18:42;;;;;;;10.60;7.00;;;;;;;-2.49;100.00;100578.36;88604;280;24054;-72
2023/12/04 01:20:46;;;;;;;9.60;7.90;;;;;;;-2.54;100.00;100583.86;88557;281;136268;-70
2023/12/04 01:22:48;;;;;;;9.40;7.40;;;;;;;-2.64;100.00;100583.13;88543;281;22610;-71
2023/12/04 01:24:50;;;;;;;10.00;7.50;;;;;;;-2.73;100.00;100582.31;88418;274;136600;-71
2023/12/04 01:26:54;;;;;;;8.70;6.70;;;;;;;-2.77;100.00;100583.59;88621;275;23152;-73
2023/12/04 01:28:57;;;;;;;10.50;7.60;;;;;;;-2.77;100.00;100580.96;88506;273;136966;-68
2023/12/04 01:30:59;;;;;;;10.10;6.70;;;;;;;-2.76;100.00;100586.68;88587;274;24993;-70
2023/12/04 01:33:01;;;;;;;11.20;7.80;;;;;;;-2.76;100.00;100589.08;88409;274;136997;-72
2023/12/04 01:35:06;;;;;;;9.60;6.50;;;;;;;-2.78;100.00;100597.90;88462;274;22567;-74
2023/12/04 01:37:08;;;;;;;10.50;6.40;;;;;;;-2.80;100.00;100601.17;88502;282;137471;-69
2023/12/04 01:39:10;;;;;;;7.20;6.20;;;;;;;-2.82;100.00;100603.08;88817;273;22540;-70
2023/12/04 01:41:12;;;;;;;10.50;7.50;;;;;;;-2.87;100.00;100609.98;88532;274;136305;-73
2023/12/04 01:43:14;;;;;;;14.40;7.40;;;;;;;-2.93;100.00;100613.45;88552;282;25168;-73
2023/12/04 01:45:16;;;;;;;9.90;7.60;;;;;;;-2.97;100.00;100620.52;88387;282;136894;-72
2023/12/04 01:47:20;;;;;;;11.30;7.00;;;;;;;-2.97;100.00;100619.95;88506;281;22542;-70
2023/12/04 01:49:22;;;;;;;9.50;7.00;;;;;;;-2.96;100.00;100619.23;88538;278;137339;-70
2023/12/04 01:51:25;;;;;;;12.40;7.00;;;;;;;-2.98;100.00;100624.02;88567;273;24049;-71
2023/12/04 01:53:29;;;;;;;9.40;6.60;;;;;;;-2.98;100.00;100623.34;88438;281;137906;-71
2023/12/04 01:55:34;;;;;;;11.70;8.90;;;;;;;-2.97;100.00;100625.70;88632;281;24015;-71
2023/12/04 01:57:36;;;;;;;9.60;7.20;;;;;;;-2.94;100.00;100624.11;88392;281;136843;-71
2023/12/04 01:59:39;;;;;;;10.90;7.80;;;;;;;-2.94;100.00;100623.93;88490;282;25197;-72
2023/12/04 02:01:41;;;;;;;10.50;7.60;;;;;;;-2.97;100.00;100627.60;88578;281;136581;-72
2023/12/04 02:03:43;;;;;;;12.90;9.10;;;;;;;-3.00;100.00;100629.02;88517;275;25212;-71
2023/12/04 02:05:46;;;;;;;11.80;7.70;;;;;;;-3.04;100.00;100624.20;88364;282;138829;-72
2023/12/04 02:07:48;;;;;;;9.90;7.30;;;;;;;-3.02;100.00;100628.78;88626;281;24055;-71
2023/12/04 02:09:50;;;;;;;12.20;7.70;;;;;;;-2.96;100.00;100633.42;88441;273;137242;-72
2023/12/04 02:11:53;;;;;;;10.60;7.30;;;;;;;-2.92;100.00;100634.45;88599;273;24302;-70
2023/12/04 02:13:59;;;;;;;7.80;6.30;;;;;;;-2.92;100.00;100635.83;88532;278;136361;-73
2023/12/04 02:16:07;;;;;;;11.10;7.60;;;;;;;-2.96;100.00;100641.28;88676;277;25312;-71
2023/12/04 02:18:10;;;;;;;7.60;6.40;;;;;;;-3.03;100.00;100644.83;88747;273;25241;-70
2023/12/04 02:20:14;;;;;;;9.00;7.30;;;;;;;-3.07;100.00;100645.29;88941;277;136473;-70
2023/12/04 02:22:18;;;;;;;15.30;9.80;;;;;;;-3.12;100.00;100648.19;88936;274;25083;-69
2023/12/04 02:24:20;;;;;;;13.60;9.10;;;;;;;-3.10;100.00;100648.06;88331;279;137106;-71
2023/12/04 02:26:31;;;;;;;10.70;8.10;;;;;;;-3.01;100.00;100648.20;88700;281;23618;-71
2023/12/04 02:28:37;;;;;;;8.60;6.90;;;;;;;-2.94;100.00;100643.09;88593;281;136980;-71
2023/12/04 02:30:43;;;;;;;10.70;7.80;;;;;;;-2.87;100.00;100647.88;88455;278;22548;-71
2023/12/04 02:32:47;;;;;;;11.20;8.20;;;;;;;-2.85;100.00;100645.50;88439;278;136473;-71
2023/12/04 02:34:50;;;;;;;12.60;8.00;;;;;;;-2.86;100.00;100649.05;88568;279;22524;-70
2023/12/04 02:36:54;;;;;;;12.30;7.50;;;;;;;-2.87;100.00;100652.23;88497;274;137807;-70
2023/12/04 02:38:57;;;;;;;12.90;8.20;;;;;;;-2.89;100.00;100661.73;88732;281;22543;-71
2023/12/04 02:40:59;;;;;;;8.80;7.30;;;;;;;-3.00;100.00;100646.60;88561;277;136713;-70
2023/12/04 02:43:02;;;;;;;12.60;9.20;;;;;;;-2.88;100.00;100665.35;88578;273;22600;-71
2023/12/04 02:45:05;;;;;;;11.20;7.50;;;;;;;-2.85;100.00;100667.73;88459;281;137178;-70
2023/12/04 02:47:52;;;;;;;13.50;8.40;;;;;;;-2.87;100.00;100669.11;86981;303;601757;-70
2023/12/04 02:49:54;;;;;;;12.20;8.40;;;;;;;-2.87;100.00;100672.23;87778;292;136977;-69
2023/12/04 02:51:57;;;;;;;13.20;8.40;;;;;;;-2.88;100.00;100672.11;87964;290;24022;-72
2023/12/04 02:53:59;;;;;;;12.00;8.10;;;;;;;-2.90;100.00;100673.98;88124;289;136860;-70
2023/12/04 02:56:01;;;;;;;13.00;9.70;;;;;;;-2.91;100.00;100673.52;88048;286;23550;-73
2023/12/04 02:58:03;;;;;;;11.00;8.50;;;;;;;-2.85;100.00;100682.54;87975;288;22544;-70
2023/12/04 03:00:06;;;;;;;12.40;7.90;;;;;;;-2.77;100.00;100681.16;87828;292;137564;-70
2023/12/04 03:02:08;;;;;;;12.90;9.00;;;;;;;-2.72;100.00;100681.95;87453;290;763878;-69
2023/12/04 03:04:10;;;;;;;11.00;8.40;;;;;;;-2.82;100.00;100669.14;88448;281;136574;-71
2023/12/04 03:06:16;;;;;;;11.90;8.40;;;;;;;-2.75;100.00;100686.27;88577;281;22563;-68
2023/12/04 03:08:18;;;;;;;11.70;8.40;;;;;;;-2.77;100.00;100687.41;88507;280;136517;-70
2023/12/04 03:10:20;;;;;;;10.50;7.50;;;;;;;-2.78;100.00;100690.80;88630;281;22518;-72
2023/12/04 03:12:23;;;;;;;10.30;8.10;;;;;;;-2.72;100.00;100696.86;88516;277;136703;-70
2023/12/04 03:14:26;;;;;;;10.90;8.10;;;;;;;-2.65;100.00;100698.03;88643;281;24015;-71
2023/12/04 03:16:28;;;;;;;10.60;8.10;;;;;;;-2.69;100.00;100686.95;88457;281;137971;-71
2023/12/04 03:18:31;;;;;;;11.30;8.10;;;;;;;-2.63;100.00;100700.17;88383;283;24179;-71
2023/12/04 03:20:33;;;;;;;13.30;8.10;;;;;;;-2.68;100.00;100704.45;88419;274;137310;-73
2023/12/04 03:22:38;;;;;;;10.40;8.20;;;;;;;-2.74;100.00;100704.48;88558;281;24093;-72
2023/12/04 03:24:40;;;;;;;12.80;7.50;;;;;;;-2.79;100.00;100708.60;88446;276;136105;-73
2023/12/04 03:26:42;;;;;;;10.70;8.20;;;;;;;-2.81;100.00;100708.75;88507;273;24068;-70
2023/12/04 03:28:44;;;;;;;9.40;7.70;;;;;;;-2.74;100.00;100712.11;88218;275;137547;-71
2023/12/04 03:30:46;;;;;;;10.60;7.30;;;;;;;-2.64;100.00;100719.88;88528;277;25226;-71
2023/12/04 03:32:48;;;;;;;11.70;9.20;;;;;;;-2.57;100.00;100717.57;88440;280;136848;-70
2023/12/04 03:34:50;;;;;;;12.60;8.80;;;;;;;-2.56;100.00;100721.48;88565;277;24307;-70
2023/12/04 03:36:52;;;;;;;11.00;8.90;;;;;;;-2.64;100.00;100722.29;88424;277;135881;-70
2023/12/04 03:38:54;;;;;;;13.30;9.40;;;;;;;-2.75;100.00;100721.20;88581;277;22543;-72
2023/12/04 03:40:56;;;;;;;9.50;7.80;;;;;;;-2.86;100.00;100710.98;88599;280;136141;-72
2023/12/04 03:43:00;;;;;;;14.30;9.00;;;;;;;-2.84;100.00;100719.15;88598;280;22533;-72
2023/12/04 03:45:02;;;;;;;12.30;8.40;;;;;;;-2.87;100.00;100714.13;88459;278;135868;-71
2023/12/04 03:47:04;;;;;;;11.40;8.00;;;;;;;-2.82;100.00;100719.75;88576;279;22867;-71
2023/12/04 03:49:06;;;;;;;12.20;8.70;;;;;;;-2.72;100.00;100723.68;88335;275;136716;-70
2023/12/04 03:51:08;;;;;;;13.10;8.30;;;;;;;-2.68;100.00;100718.39;88547;281;22527;-71
2023/12/04 03:53:10;;;;;;;10.30;7.00;;;;;;;-2.65;100.00;100716.98;88388;273;136409;-71
2023/12/04 03:55:13;;;;;;;11.40;8.30;;;;;;;-2.69;100.00;100719.51;88736;273;22533;-71
2023/12/04 03:57:15;;;;;;;11.70;8.00;;;;;;;-2.77;100.00;100724.63;88486;278;135717;-70
2023/12/04 03:59:18;;;;;;;14.40;8.70;;;;;;;-2.84;100.00;100726.34;88404;278;25369;-70
2023/12/04 04:01:20;;;;;;;10.30;7.00;;;;;;;-2.94;100.00;100728.98;88346;274;137728;-69
2023/12/04 04:03:22;;;;;;;11.60;8.40;;;;;;;-2.97;100.00;100731.94;88467;278;22526;-70
2023/12/04 04:05:24;;;;;;;12.30;8.50;;;;;;;-2.98;100.00;100732.33;88336;276;137102;-70
2023/12/04 04:07:26;;;;;;;10.30;7.30;;;;;;;-2.97;100.00;100733.88;88538;281;24015;-71
2023/12/04 04:09:31;;;;;;;14.20;7.70;;;;;;;-3.04;100.00;100737.23;88409;281;136335;-71
2023/12/04 04:11:33;;;;;;;11.10;9.00;;;;;;;-3.16;100.00;100745.06;88498;274;22530;-69
2023/12/04 04:13:37;;;;;;;13.50;9.40;;;;;;;-3.26;100.00;100749.82;88555;280;135953;-70
2023/12/04 04:15:39;;;;;;;13.80;9.20;;;;;;;-3.32;100.00;100749.66;88515;282;25144;-70
2023/12/04 04:17:42;;;;;;;9.90;7.80;;;;;;;-3.37;100.00;100752.88;88345;279;136970;-71
2023/12/04 04:19:44;;;;;;;13.70;8.50;;;;;;;-3.38;100.00;100752.76;88557;278;22541;-70
2023/12/04 04:21:46;;;;;;;15.30;9.40;;;;;;;-3.32;100.00;100749.99;88502;278;136824;-74
2023/12/04 04:23:48;;;;;;;12.40;9.70;;;;;;;-3.29;100.00;100753.45;88668;273;23656;-71
2023/12/04 04:25:50;;;;;;;11.20;8.40;;;;;;;-3.36;100.00;100744.14;88719;273;136925;-70
2023/12/04 04:27:52;;;;;;;9.60;8.00;;;;;;;-3.29;100.00;100755.26;88662;280;22524;-70
2023/12/04 04:29:54;;;;;;;11.60;9.80;;;;;;;-3.37;100.00;100753.59;88491;281;135823;-69
2023/12/04 04:31:56;;;;;;;14.60;10.70;;;;;;;-3.46;100.00;100747.85;88585;274;22602;-72
2023/12/04 04:33:58;;;;;;;14.00;10.10;;;;;;;-3.51;100.00;100753.34;88549;273;136271;-67
2023/12/04 04:36:01;;;;;;;14.80;9.90;;;;;;;-3.54;100.00;100758.39;88550;273;22548;-68
2023/12/04 04:38:04;;;;;;;13.40;10.00;;;;;;;-3.50;100.00;100765.30;88520;281;22619;-68
2023/12/04 04:40:06;;;;;;;13.60;9.60;;;;;;;-3.44;100.00;100764.41;88454;282;137034;-68
2023/12/04 04:42:08;;;;;;;16.10;10.80;;;;;;;-3.44;100.00;100768.05;88641;281;25569;-72
2023/12/04 04:44:10;;;;;;;15.20;10.10;;;;;;;-3.46;100.00;100770.06;88481;274;137188;-71
2023/12/04 04:46:13;;;;;;;14.50;10.10;;;;;;;-3.46;100.00;100768.73;88525;274;22532;-70
2023/12/04 04:48:15;;;;;;;14.80;11.10;;;;;;;-3.50;100.00;100769.12;88515;273;136503;-72
2023/12/04 04:50:17;;;;;;;13.50;10.40;;;;;;;-3.56;100.00;100771.16;88474;281;22533;-69
2023/12/04 04:52:19;;;;;;;14.50;10.40;;;;;;;-3.59;100.00;100770.83;88322;280;136634;-68
2023/12/04 04:54:21;;;;;;;13.90;9.70;;;;;;;-3.58;100.00;100777.04;88573;281;23475;-69
2023/12/04 04:56:23;;;;;;;14.70;10.80;;;;;;;-3.54;100.00;100776.26;88459;273;136591;-69
2023/12/04 04:58:25;;;;;;;12.70;9.80;;;;;;;-3.47;100.00;100782.45;88526;281;22527;-71
2023/12/04 05:00:27;;;;;;;17.70;10.50;;;;;;;-3.43;100.00;100784.35;88375;275;136726;-71
2023/12/04 05:02:29;;;;;;;14.80;10.70;;;;;;;-3.42;100.00;100789.86;88397;274;24244;-71
2023/12/04 05:04:31;;;;;;;15.20;9.30;;;;;;;-3.42;100.00;100794.52;88323;279;137246;-71
2023/12/04 05:06:34;;;;;;;12.80;9.70;;;;;;;-3.39;100.00;100799.23;88433;277;24055;-69
2023/12/04 05:08:37;;;;;;;13.80;8.90;;;;;;;-3.34;100.00;100803.48;88500;281;136868;-74
2023/12/04 05:10:39;;;;;;;12.80;9.90;;;;;;;-3.34;100.00;100807.94;88352;274;25175;-72
2023/12/04 05:12:41;;;;;;;15.70;10.60;;;;;;;-3.33;100.00;100811.59;88368;274;136993;-72
2023/12/04 05:14:43;;;;;;;14.70;11.00;;;;;;;-3.34;100.00;100820.16;88389;274;22555;-72
2023/12/04 05:16:45;;;;;;;10.90;8.40;;;;;;;-3.38;100.00;100823.47;88331;274;136790;-71
2023/12/04 05:18:47;;;;;;;14.00;9.30;;;;;;;-3.38;100.00;100826.60;88264;277;22539;-71
2023/12/04 05:20:51;;;;;;;12.60;9.20;;;;;;;-3.34;100.00;100829.66;88164;279;137984;-69
2023/12/04 05:22:54;;;;;;;10.80;8.90;;;;;;;-3.28;100.00;100833.71;88377;274;24055;-70
2023/12/04 05:24:57;;;;;;;13.30;9.60;;;;;;;-3.27;100.00;100837.15;88080;275;136049;-70
2023/12/04 05:26:59;;;;;;;14.70;10.20;;;;;;;-3.30;100.00;100839.23;88421;274;22523;-70
2023/12/04 05:29:01;;;;;;;13.90;10.10;;;;;;;-3.33;100.00;100837.77;88379;281;137496;-70
2023/12/04 05:31:04;;;;;;;13.10;9.70;;;;;;;-3.34;100.00;100841.50;88282;275;24865;-70
2023/12/04 05:33:06;;;;;;;15.00;9.60;;;;;;;-3.31;100.00;100839.81;88250;274;137815;-76
2023/12/04 05:35:09;;;;;;;13.50;9.10;;;;;;;-3.20;100.00;100839.00;88317;276;25153;-72
2023/12/04 05:37:11;;;;;;;15.40;10.00;;;;;;;-3.11;100.00;100838.13;88340;274;137045;-74
2023/12/04 05:39:12;;;;;;;12.50;9.20;;;;;;;-3.02;100.00;100833.79;88374;282;25103;-72
2023/12/04 05:41:15;;;;;;;11.90;8.30;;;;;;;-2.94;100.00;100832.48;88296;282;137073;-70
2023/12/04 05:43:17;;;;;;;11.40;9.10;;;;;;;-2.87;100.00;100834.33;88424;282;26208;-73
2023/12/04 05:45:19;;;;;;;14.40;9.80;;;;;;;-2.82;100.00;100833.69;88288;278;137135;-73
2023/12/04 05:47:21;;;;;;;10.90;8.00;;;;;;;-2.83;100.00;100841.57;88463;273;22537;-75
2023/12/04 05:49:24;;;;;;;13.20;10.00;;;;;;;-2.89;100.00;100839.17;88481;274;136248;-73
2023/12/04 05:51:27;;;;;;;14.80;9.80;;;;;;;-2.95;100.00;100845.70;88473;274;22631;-73
2023/12/04 05:53:33;;;;;;;13.20;9.50;;;;;;;-2.94;100.00;100849.84;88293;276;138454;-74
2023/12/04 05:55:35;;;;;;;13.40;9.00;;;;;;;-2.90;100.00;100844.42;88443;280;24021;-72
2023/12/04 05:57:40;;;;;;;11.30;10.00;;;;;;;-2.85;100.00;100844.48;88351;273;138620;-72
2023/12/04 05:59:42;;;;;;;13.30;9.10;;;;;;;-2.78;100.00;100842.99;88494;277;22549;-70
2023/12/04 06:01:44;;;;;;;15.10;10.60;;;;;;;-2.71;100.00;100844.14;88138;283;138311;-71
2023/12/04 06:03:47;;;;;;;14.60;9.80;;;;;;;-2.67;100.00;100846.71;88206;275;24055;-72
2023/12/04 06:05:49;;;;;;;15.00;11.40;;;;;;;-2.65;100.00;100845.58;88280;274;136193;-68
2023/12/04 06:07:54;;;;;;;15.50;11.00;;;;;;;-2.72;100.00;100830.85;88414;277;25271;-68
2023/12/04 06:09:56;;;;;;;15.60;11.50;;;;;;;-2.67;100.00;100843.45;88235;279;136105;-71
2023/12/04 06:11:58;;;;;;;14.70;12.50;;;;;;;-2.68;100.00;100845.89;88325;280;24014;-69
2023/12/04 06:14:00;;;;;;;14.80;10.10;;;;;;;-2.65;100.00;100851.11;88130;283;137412;-71
2023/12/04 06:16:02;;;;;;;17.40;11.00;;;;;;;-2.59;100.00;100851.27;88357;277;22911;-70
2023/12/04 06:18:04;;;;;;;18.80;11.80;;;;;;;-2.54;100.00;100855.36;88557;281;26036;-68
2023/12/04 06:20:07;;;;;;;16.80;12.10;;;;;;;-2.52;100.00;100855.73;88060;280;139104;-71
2023/12/04 06:22:10;;;;;;;17.50;11.90;;;;;;;-2.46;100.00;100855.25;88761;276;25995;-72
2023/12/04 06:24:12;;;;;;;17.80;12.50;;;;;;;-2.41;100.00;100855.80;88339;276;139076;-70
2023/12/04 06:26:15;;;;;;;20.90;11.50;;;;;;;-2.40;100.00;100857.27;88488;273;25147;-71
2023/12/04 06:28:17;;;;;;;18.90;11.70;;;;;;;-2.39;100.00;100860.54;88032;275;137531;-70
2023/12/04 06:30:20;;;;;;;20.10;13.30;;;;;;;-2.36;100.00;100863.70;88580;273;25342;-71
2023/12/04 06:32:22;;;;;;;23.10;14.80;;;;;;;-2.32;100.00;100865.18;88278;277;137500;-73
2023/12/04 06:34:25;;;;;;;23.40;15.30;;;;;;;-2.31;100.00;100863.40;88231;273;23816;-68
2023/12/04 06:36:31;;;;;;;24.80;15.60;;;;;;;-2.33;100.00;100865.08;88319;281;136420;-71
2023/12/04 06:38:39;;;;;;;27.30;16.50;;;;;;;-2.32;100.00;100866.61;88361;281;25245;-70
2023/12/04 06:40:41;;;;;;;26.60;16.60;;;;;;;-2.33;100.00;100867.17;88154;275;137848;-74
2023/12/04 06:42:44;;;;;;;22.80;15.50;;;;;;;-2.34;100.00;100858.89;88111;276;22616;-75
2023/12/04 06:44:46;;;;;;;28.40;16.80;;;;;;;-2.35;100.00;100850.57;88594;277;137843;-77
2023/12/04 06:46:51;;;;;;;26.60;17.40;;;;;;;-2.25;100.00;100864.91;88469;273;22570;-76
2023/12/04 06:48:54;;;;;;;;;;;;;;;-2.23;100.00;100870.02;88281;278;138443;-76
2023/12/04 06:50:56;;;;;;;27.00;16.70;;;;;;;-2.23;100.00;100873.86;88227;275;23396;-73
2023/12/04 06:52:58;;;;;;;28.00;16.70;;;;;;;-2.19;100.00;100874.28;88249;273;137336;-75
2023/12/04 06:55:00;;;;;;;27.70;15.80;;;;;;;-2.11;100.00;100873.66;88429;277;25085;-76
2023/12/04 06:57:03;;;;;;;28.40;15.80;;;;;;;-2.05;100.00;100873.14;88383;275;137191;-77
2023/12/04 06:59:05;;;;;;;28.90;18.50;;;;;;;-2.06;100.00;100874.60;88491;273;22531;-76
2023/12/04 07:01:07;;;;;;;28.90;17.40;;;;;;;-2.06;100.00;100873.20;88325;273;137486;-76
2023/12/04 07:03:09;;;;;;;27.60;17.70;;;;;;;-2.01;100.00;100870.77;88501;277;25282;-77
2023/12/04 07:05:12;;;;;;;25.50;16.50;;;;;;;-1.93;100.00;100869.60;88301;273;138894;-72
2023/12/04 07:07:14;;;;;;;25.90;16.00;;;;;;;-1.88;100.00;100872.27;88601;273;25102;-77
2023/12/04 07:09:17;;;;;;;31.10;18.60;;;;;;;-1.85;100.00;100873.42;88331;275;137424;-75
2023/12/04 07:11:19;;;;;;;26.50;16.30;;;;;;;-1.81;100.00;100874.26;88632;277;24094;-79
2023/12/04 07:13:21;;;;;;;29.80;18.40;;;;;;;-1.81;100.00;100881.41;88261;275;137687;-76
2023/12/04 07:15:23;;;;;;;29.20;17.30;;;;;;;-1.84;100.00;100880.00;88541;274;24014;-78
2023/12/04 07:17:25;;;;;;;28.10;16.20;;;;;;;-1.87;100.00;100880.73;88493;277;137339;-79
2023/12/04 07:19:27;;;;;;;31.70;18.10;;;;;;;-1.90;100.00;100881.77;88569;273;22535;-74
2023/12/04 07:21:29;;;;;;;28.20;18.00;;;;;;;-1.89;100.00;100882.95;88766;281;137112;-77
2023/12/04 07:23:31;;;;;;;30.20;18.60;;;;;;;-1.86;100.00;100887.10;88717;281;23977;-79
2023/12/04 07:25:34;;;;;;;30.90;18.20;;;;;;;-1.88;100.00;100883.38;88718;278;137543;-76
2023/12/04 07:27:37;;;;;;;26.60;18.80;;;;;;;-1.86;100.00;100887.44;88855;276;22530;-76
2023/12/04 07:29:40;;;;;;;27.20;16.60;;;;;;;-1.82;100.00;100884.75;89581;273;137495;-76
2023/12/04 07:31:42;;;;;;;26.70;17.30;;;;;;;-1.81;100.00;100886.62;89555;283;22542;-74
2023/12/04 07:33:44;;;;;;;26.60;16.40;;;;;;;-1.73;100.00;100889.96;90136;282;137110;-74
2023/12/04 07:35:47;;;;;;;29.30;18.50;;;;;;;-1.69;100.00;100883.12;89970;280;24921;-76
2023/12/04 07:37:49;;;;;;;29.70;18.70;;;;;;;-1.62;100.00;100882.33;90200;280;137803;-71
2023/12/04 07:39:51;;;;;;;33.40;18.00;;;;;;;-1.55;100.00;100882.73;89474;281;22531;-75
2023/12/04 07:41:53;;;;;;;29.90;17.30;;;;;;;-1.55;100.00;100878.92;88689;281;136310;-75
2023/12/04 07:43:55;;;;;;;28.30;17.90;;;;;;;-1.50;100.00;100883.30;88469;281;23211;-72
2023/12/04 07:45:57;;;;;;;29.70;18.70;;;;;;;-1.46;100.00;100885.16;88259;274;136990;-77
2023/12/04 07:48:00;;;;;;;32.20;19.40;;;;;;;-1.39;100.00;100895.52;88475;277;25190;-74
2023/12/04 07:50:04;;;;;;;29.90;19.00;;;;;;;-1.30;100.00;100896.88;89088;280;25109;-77
2023/12/04 07:52:06;;;;;;;28.40;17.50;;;;;;;-1.25;100.00;100896.39;88965;276;138718;-75
2023/12/04 07:54:09;;;;;;;31.30;21.80;;;;;;;-1.21;100.00;100898.15;88940;281;24030;-74
2023/12/04 07:56:12;;;;;;;32.50;20.90;;;;;;;-1.12;100.00;100899.55;88484;281;138273;-77
2023/12/04 07:58:14;;;;;;;30.20;20.20;;;;;;;-1.04;100.00;100898.67;88683;283;25109;-77
2023/12/04 08:00:22;;;;;;;34.60;22.50;;;;;;;-0.98;100.00;100902.63;88389;281;137133;-79
2023/12/04 08:02:24;;;;;;;30.80;23.10;;;;;;;-0.98;100.00;100901.58;88762;281;22538;-78
2023/12/04 08:04:27;;;;;;;35.60;23.80;;;;;;;-0.98;100.00;100905.24;88534;281;136440;-77
2023/12/04 08:06:29;;;;;;;32.50;22.60;;;;;;;-0.99;100.00;100905.14;88344;282;22544;-79
2023/12/04 08:08:32;;;;;;;33.30;20.90;;;;;;;-0.99;100.00;100907.21;89181;277;136742;-78
2023/12/04 08:10:34;;;;;;;28.10;18.10;;;;;;;-0.95;100.00;100909.96;89230;281;22538;-77
2023/12/04 08:12:36;;;;;;;30.60;18.40;;;;;;;-0.92;100.00;100912.02;88230;273;137351;-74
2023/12/04 08:14:39;;;;;;;27.00;18.50;;;;;;;-0.90;100.00;100911.77;88190;275;22532;-75
2023/12/04 08:16:41;;;;;;;31.80;20.30;;;;;;;-0.90;100.00;100914.02;88293;273;137132;-74
2023/12/04 08:18:43;;;;;;;29.70;19.00;;;;;;;-0.91;100.00;100914.77;88405;280;25956;-79
2023/12/04 08:20:46;;;;;;;31.90;19.60;;;;;;;-0.89;100.00;100924.41;88824;282;137228;-75
2023/12/04 08:22:49;;;;;;;26.30;18.60;;;;;;;-0.87;100.00;100926.52;89165;283;22537;-79
2023/12/04 08:24:51;;;;;;;29.90;20.30;;;;;;;-0.89;100.00;100931.23;88918;282;136108;-77
2023/12/04 08:26:56;;;;;;;29.70;18.20;;;;;;;-0.96;100.00;100930.41;89285;272;22476;-76
2023/12/04 08:28:58;;;;;;;34.30;19.10;;;;;;;-0.98;100.00;100932.48;88953;280;136479;-76
2023/12/04 08:31:01;;;;;;;25.70;16.10;;;;;;;-0.98;100.00;100934.57;89048;273;23652;-78
2023/12/04 08:33:03;;;;;;;29.60;17.90;;;;;;;-0.95;100.00;100938.90;89051;277;137452;-80
2023/12/04 08:35:06;;;;;;;27.80;17.00;;;;;;;-0.90;100.00;100933.91;88384;283;22773;-76
2023/12/04 08:37:08;;;;;;;28.40;18.40;;;;;;;-0.86;100.00;100927.70;88605;273;137438;-77
2023/12/04 08:39:10;;;;;;;27.10;17.60;;;;;;;-0.82;100.00;100927.05;88423;280;22666;-76
2023/12/04 08:41:12;;;;;;;26.30;17.60;;;;;;;-0.77;100.00;100925.88;88420;282;136916;-75
2023/12/04 08:43:14;;;;;;;30.20;20.10;;;;;;;-0.72;100.00;100927.66;88217;275;22534;-74
2023/12/04 08:45:17;;;;;;;29.20;18.90;;;;;;;-0.70;100.00;100926.45;88249;273;137546;-76
2023/12/04 08:47:21;;;;;;;21.80;16.70;;;;;;;-0.70;100.00;100924.16;88375;281;25319;-76
2023/12/04 08:49:23;;;;;;;30.20;20.50;;;;;;;-0.70;100.00;100918.77;88259;281;138041;-77
2023/12/04 08:51:33;;;;;;;28.40;17.50;;;;;;;-0.72;100.00;100916.14;88235;275;24027;-78
2023/12/04 08:53:36;;;;;;;23.30;16.70;;;;;;;-0.69;100.00;100913.11;88249;279;138006;-76
2023/12/04 08:55:38;;;;;;;24.00;16.40;;;;;;;-0.59;100.00;100912.15;88231;280;22530;-76
2023/12/04 08:57:41;;;;;;;25.60;17.50;;;;;;;-0.53;100.00;100913.45;88560;281;140017;-72
2023/12/04 08:59:43;;;;;;;24.80;17.00;;;;;;;-0.50;100.00;100908.91;88458;279;22538;-75
2023/12/04 09:01:45;;;;;;;28.90;20.20;;;;;;;-0.48;100.00;100906.86;88275;273;136751;-79
2023/12/04 09:03:47;;;;;;;27.10;17.60;;;;;;;-0.48;100.00;100908.44;88403;281;25144;-78
2023/12/04 09:05:51;;;;;;;25.60;17.40;;;;;;;-0.49;100.00;100909.52;88190;274;136561;-79
2023/12/04 09:07:54;;;;;;;26.90;18.80;;;;;;;-0.51;100.00;100910.54;88321;274;25269;-76
2023/12/04 09:10:00;;;;;;;25.50;17.30;;;;;;;-0.51;100.00;100914.38;88043;280;136931;-73
2023/12/04 09:12:11;;;;;;;24.60;17.20;;;;;;;-0.47;100.00;100909.78;88322;275;138694;-75
2023/12/04 09:14:14;;;;;;;29.80;18.30;;;;;;;-0.41;100.00;100904.45;88495;281;22599;-77
2023/12/04 09:16:16;;;;;;;24.60;17.00;;;;;;;-0.35;100.00;100904.96;88354;280;138852;-75
2023/12/04 09:18:19;;;;;;;29.40;19.30;;;;;;;-0.32;100.00;100905.46;88608;273;22818;-78
2023/12/04 09:20:21;;;;;;;28.50;19.10;;;;;;;-0.42;100.00;100895.08;88501;281;136711;-78